Aérodrome :
LOGIN :

S'inscrire | Disclaimer

   EN    FR    IT 

 










Légende :    VFR   VFR Marginal   IFR   IFR Intensif   IFR Très Intensif
Visi : 
Plafond : 
>= 8 km
>= 3000ft
5 à 8 km
1000 à 3000 ft
1500m à 5 km
500 à 1000 ft
800 à 1500m
200 à 500 ft
< 800m
< 200 ft
Symboles :   Orages  Brouillard  Fortes neiges  Fortes précipitations  Vent > 20 kt
SIGMETs :   Divers  Orages  Givrage  Turbulence  Onde Orograph.  Cendres Volcan.







- Altitude de l'aérodrome : 26 ft
- Code IATA : GLA
- Voir les cartes d'approche


EGPF - Glasgow

DERNIER METAR :
  • 240050Z AUTO 19006KT 9999 FEW040/// //////CB 04/02 Q1029

METARs EXPIRÉS :
  • 240020Z AUTO 24005KT 9999 FEW021/// SCT032/// //////TCU 04/03 Q1029
  • 232350Z AUTO 22010KT 9999 FEW040/// SCT048/// //////CB 04/03 Q1030
  • 232320Z AUTO 22009KT 9999 //////CB 04/02 Q1030
  • 232250Z AUTO 22010KT 9999 FEW033/// //////CB 05/03 Q1031
  • 232220Z AUTO 23009KT 9999 BKN029/// //////CB 05/03 Q1031

TAF TAF EGPF
Valide du 24 à 00h jusqu'au 25 à 00h UTC


232258Z 2400/2424 23009KT 9999 SCT030
TEMPO 2400/2418 8000 -SHRA
PROB30
TEMPO 2403/2409 27020G30KT
PROB40
TEMPO 2409/2418 4000 SHRA BKN014
PROB40
TEMPO 2409/2416 27022G35KT
PROB30
TEMPO 2416/2424 30020G30KT
ATIS : +44 141 887 7449
Pas de NOTAMs connus pour ce terrain.



MET'MAP, la Météo Aéronautique d'un coup d'oeil ! - Copyright ORBIFLY Décembre 2007 - Disclaimer

ORBIFLY MET'MAP TEAM :

Programmation & Développement : Alexandra Zaïnal
Conception & Développement : Baudouin d'Aumeries
Co-Programmation & Développement : Marc-Olivier Méhu
Soutien technique & logistique : Manuel Goepfert

Contact : metmap@orbifly.com




SOURCES & CREDITS :

   NOAA